sim
Sign-in with your pilot id or email,
or register
Callsign
Passwort

Schedule Details

Flight Number: DLH1983 (2)
Departure: Cologne Bonn Airport (EDDK) at 08:30
Arrival: Munich Airport (EDDM) at 09:35
Route: Lufthansa Passenger Schedule. Enter filed route here before submitting Pirep.

Weather Information
Getting current METAR information for EDDK 231450Z 19010KT 160V230 CAVOK 24/11 Q1004 NOSIG
Getting current METAR information for EDDM 231450Z 24007KT 9999 FEW043 19/15 Q1009 NOSIG

Schedule Frequency

Route Map